Time;durP1;ratioP1;P1;durP2;ratioP2;P2;SDS_P1;SDS_P2;PMS_P1;PMS_P2;Temp;Humidity;BMP_temperature;BMP_pressure;BME280_temperature;BME280_humidity;BME280_pressure;Samples;Min_cycle;Max_cycle;Signal;HPM_P1;HPM_P2
2021/11/09 00:00:19;;;;;;;161.68;28.05;;;;;;;4.47;100.00;98744.38;4961342;29;20051;-81
2021/11/09 00:02:46;;;;;;;201.70;29.08;;;;;;;4.37;100.00;98744.13;4965782;29;20037;-79
2021/11/09 00:05:15;;;;;;;219.45;29.30;;;;;;;4.35;100.00;98737.31;4966377;29;20017;-77
2021/11/09 00:07:53;;;;;;;222.50;28.98;;;;;;;4.35;100.00;98731.91;4966430;29;20016;-77
2021/11/09 00:10:20;;;;;;;173.07;29.13;;;;;;;4.41;100.00;98747.19;4965943;29;20079;-77
2021/11/09 00:12:55;;;;;;;217.73;26.23;;;;;;;4.35;100.00;98740.84;4966485;29;20024;-77
2021/11/09 00:15:22;;;;;;;;;;;;;;;4.33;100.00;98745.66;4966312;29;21073;-78
2021/11/09 00:17:54;;;;;;;146.73;23.95;;;;;;;4.31;100.00;98735.06;4966315;29;19902;-76
2021/11/09 00:20:21;;;;;;;188.60;23.77;;;;;;;4.44;100.00;98738.59;4966318;29;20031;-78
2021/11/09 00:22:47;;;;;;;123.70;22.83;;;;;;;4.43;100.00;98739.66;4966297;29;20023;-78
2021/11/09 00:25:14;;;;;;;192.93;28.73;;;;;;;4.44;100.00;98744.00;4966089;29;20022;-78
2021/11/09 00:27:39;;;;;;;259.40;29.67;;;;;;;4.40;100.00;98737.41;4966127;29;20015;-77
2021/11/09 00:30:08;;;;;;;171.57;26.88;;;;;;;4.46;100.00;98745.41;4965405;29;20020;-79
2021/11/09 00:32:34;;;;;;;124.95;25.77;;;;;;;4.49;100.00;98744.13;4966130;29;20015;-77
2021/11/09 00:35:00;;;;;;;222.20;31.85;;;;;;;4.54;100.00;98747.75;4966207;29;20035;-76
2021/11/09 00:37:26;;;;;;;232.60;29.40;;;;;;;4.40;100.00;98742.81;4966242;29;20024;-77
2021/11/09 00:39:51;;;;;;;135.05;26.75;;;;;;;4.52;100.00;98746.34;4966086;29;20042;-79
2021/11/09 00:42:18;;;;;;;163.38;27.23;;;;;;;4.45;100.00;98754.59;4970301;28;20051;-78
2021/11/09 00:44:44;;;;;;;139.38;24.95;;;;;;;4.50;100.00;98753.91;4985433;28;20023;-78
2021/11/09 00:47:10;;;;;;;138.75;23.33;;;;;;;4.41;100.00;98756.16;4983008;28;20113;-77
2021/11/09 00:49:35;;;;;;;109.53;22.63;;;;;;;4.44;100.00;98754.84;4982301;28;20019;-78
2021/11/09 00:52:02;;;;;;;154.80;23.90;;;;;;;4.50;100.00;98748.47;4982182;28;20046;-76
2021/11/09 00:54:28;;;;;;;135.75;24.63;;;;;;;4.63;100.00;98748.25;4982139;28;20016;-77
2021/11/09 00:56:54;;;;;;;79.40;24.73;;;;;;;4.60;100.00;98749.53;4966070;28;20024;-76
2021/11/09 00:59:20;;;;;;;177.43;27.10;;;;;;;4.53;100.00;98756.97;4982226;28;20042;-77
2021/11/09 01:01:46;;;;;;;147.18;25.38;;;;;;;4.63;100.00;98756.38;4982207;28;20038;-77
2021/11/09 01:04:11;;;;;;;55.05;22.52;;;;;;;4.67;100.00;98746.69;4982047;28;20070;-77
2021/11/09 01:06:37;;;;;;;115.38;25.05;;;;;;;4.72;100.00;98752.22;4965386;29;20008;-78
2021/11/09 01:09:05;;;;;;;143.18;25.10;;;;;;;4.73;100.00;98753.88;4965313;28;20035;-77
2021/11/09 01:11:32;;;;;;;199.75;24.75;;;;;;;4.72;100.00;98747.66;4981901;28;20019;-81
2021/11/09 01:13:58;;;;;;;315.45;36.03;;;;;;;4.71;100.00;98743.28;4965145;29;20038;-79
2021/11/09 01:16:23;;;;;;;113.75;25.08;;;;;;;4.70;100.00;98732.66;4981492;29;20012;-79
2021/11/09 01:18:52;;;;;;;106.40;24.33;;;;;;;4.76;100.00;98737.94;4965175;29;20054;-77
2021/11/09 01:21:20;;;;;;;107.25;24.38;;;;;;;4.80;100.00;98739.13;4965269;28;20014;-77
2021/11/09 01:23:51;;;;;;;92.13;24.33;;;;;;;4.79;100.00;98734.75;4981749;28;20076;-77
2021/11/09 01:26:17;;;;;;;102.80;23.85;;;;;;;4.84;100.00;98728.63;4965183;28;20035;-78
2021/11/09 01:28:45;;;;;;;107.95;24.08;;;;;;;4.91;100.00;98723.09;4981761;28;20014;-76
2021/11/09 01:31:17;;;;;;;45.95;22.52;;;;;;;4.97;100.00;98712.13;4981144;28;20079;-79
2021/11/09 01:33:43;;;;;;;124.35;23.63;;;;;;;5.06;100.00;98726.09;4964659;29;20024;-78
2021/11/09 01:36:10;;;;;;;85.05;22.27;;;;;;;5.02;100.00;98720.34;4981264;29;20020;-77
2021/11/09 01:38:36;;;;;;;57.55;22.63;;;;;;;5.04;100.00;98718.22;4963548;29;20011;-78
2021/11/09 01:41:03;;;;;;;48.05;21.45;;;;;;;5.03;100.00;98722.00;4963860;28;20011;-76
2021/11/09 01:43:30;;;;;;;90.55;25.25;;;;;;;5.02;100.00;98728.47;4980473;28;20090;-77
2021/11/09 01:45:58;;;;;;;61.05;22.23;;;;;;;5.05;100.00;98730.69;4963954;29;20011;-76
2021/11/09 01:48:24;;;;;;;53.75;22.05;;;;;;;4.99;100.00;98731.66;4981098;29;20026;-75
2021/11/09 01:50:56;;;;;;;39.90;19.58;;;;;;;4.99;100.00;98742.50;4964458;29;20019;-75
2021/11/09 01:53:22;;;;;;;38.35;20.67;;;;;;;4.94;100.00;98747.00;4981025;28;20010;-77
2021/11/09 01:55:47;;;;;;;46.78;20.50;;;;;;;4.96;100.00;98747.56;4964122;29;20008;-78
2021/11/09 01:58:14;;;;;;;39.78;20.20;;;;;;;4.91;100.00;98745.59;4979979;28;20026;-80
2021/11/09 02:00:50;;;;;;;35.55;18.75;;;;;;;4.97;100.00;98750.06;4980396;28;20035;-81
2021/11/09 02:03:19;;;;;;;37.97;19.10;;;;;;;5.01;100.00;98761.25;4980789;28;20054;-79
2021/11/09 02:05:44;;;;;;;35.65;20.17;;;;;;;4.96;100.00;98756.53;4963965;29;20035;-78
2021/11/09 02:08:11;;;;;;;36.75;18.73;;;;;;;5.02;100.00;98752.88;4963673;29;20031;-81
2021/11/09 02:10:39;;;;;;;36.90;18.75;;;;;;;5.02;100.00;98758.28;4979163;29;20038;-79
2021/11/09 02:13:05;;;;;;;66.25;23.05;;;;;;;4.85;100.00;98752.78;4963786;28;20039;-82
2021/11/09 02:15:32;;;;;;;37.00;19.50;;;;;;;4.93;100.00;98754.31;4980465;28;20096;-80
2021/11/09 02:17:58;;;;;;;42.28;21.95;;;;;;;5.02;100.00;98758.28;4963893;29;20023;-80
2021/11/09 02:20:26;;;;;;;41.70;20.33;;;;;;;5.00;100.00;98759.59;4980143;29;20079;-78
2021/11/09 02:22:53;;;;;;;44.83;20.77;;;;;;;5.04;100.00;98761.59;4980321;28;20031;-81
2021/11/09 02:25:21;;;;;;;40.30;20.55;;;;;;;5.05;100.00;98765.09;4980399;28;20031;-78
2021/11/09 02:27:49;;;;;;;53.53;21.15;;;;;;;5.05;100.00;98751.56;4964256;29;20019;-78
2021/11/09 02:30:17;;;;;;;42.28;20.95;;;;;;;5.04;100.00;98755.34;4963695;29;20034;-80
2021/11/09 02:32:45;;;;;;;48.25;20.63;;;;;;;5.02;100.00;98758.28;4963509;29;20035;-77
2021/11/09 02:35:13;;;;;;;50.30;22.02;;;;;;;4.97;100.00;98766.31;4961866;29;20034;-78
2021/11/09 02:37:38;;;;;;;33.20;19.67;;;;;;;5.03;100.00;98769.97;4961650;29;20023;-77
2021/11/09 02:40:05;;;;;;;34.28;19.73;;;;;;;5.10;100.00;98776.91;4960924;29;20011;-79
2021/11/09 02:42:34;;;;;;;36.35;21.17;;;;;;;5.09;100.00;98777.13;4960529;28;20659;-79
2021/11/09 02:45:10;;;;;;;36.60;22.15;;;;;;;5.07;100.00;98766.53;4960591;28;20028;-80
2021/11/09 02:50:40;;;;;;;35.53;20.52;;;;;;;4.86;100.00;98767.16;4960147;29;20036;-80
2021/11/09 02:53:56;;;;;;;39.28;22.17;;;;;;;4.96;100.00;98780.94;4960231;28;20023;-79
2021/11/09 02:56:01;;;;;;;37.67;19.70;;;;;;;4.92;100.00;98796.00;4946876;28;20024;-77
2021/11/09 03:01:18;;;;;;;33.30;19.25;;;;;;;4.83;100.00;98803.69;4960319;28;20023;-78
2021/11/09 03:03:56;;;;;;;;;;;;;;;4.64;100.00;98809.47;4960809;28;20019;-78
2021/11/09 03:06:59;;;;;;;30.80;18.70;;;;;;;4.70;100.00;98803.09;4960301;28;19923;-83
2021/11/09 03:09:18;;;;;;;27.30;17.08;;;;;;;4.67;100.00;98800.88;4955864;29;20023;-81
2021/11/09 03:11:56;;;;;;;28.48;17.52;;;;;;;4.73;100.00;98798.03;4959440;28;20029;-78
2021/11/09 03:14:23;;;;;;;30.63;17.67;;;;;;;4.67;100.00;98798.16;4960245;28;20043;-81
2021/11/09 03:16:48;;;;;;;27.05;17.25;;;;;;;4.79;100.00;98801.72;4960078;28;20034;-79
2021/11/09 03:19:36;;;;;;;30.83;18.77;;;;;;;4.84;100.00;98810.78;4960206;29;20020;-78
2021/11/09 03:44:17;;;;;;;29.50;16.97;;;;;;;4.95;100.00;98822.66;4960073;28;20064;-78
2021/11/09 03:46:45;;;;;;;32.15;17.70;;;;;;;4.90;100.00;98827.13;4960151;28;21068;-78
2021/11/09 03:49:12;;;;;;;35.80;18.00;;;;;;;4.86;100.00;98826.78;4960292;28;20039;-77
2021/11/09 03:51:39;;;;;;;33.53;18.98;;;;;;;4.89;100.00;98829.00;4959962;28;20044;-77
2021/11/09 03:54:10;;;;;;;39.47;19.80;;;;;;;4.93;100.00;98835.63;4943776;28;20023;-78
2021/11/09 03:56:57;;;;;;;29.25;16.13;;;;;;;4.79;100.00;98835.03;4960508;28;20024;-78
2021/11/09 04:06:51;;;;;;;32.58;18.50;;;;;;;4.82;100.00;98845.41;4960033;28;20048;-78
2021/11/09 04:09:28;;;;;;;32.00;17.30;;;;;;;4.78;100.00;98855.09;4943560;29;20012;-78
2021/11/09 04:30:31;;;;;;;34.88;18.70;;;;;;;4.63;100.00;98883.69;4962450;28;20087;-78
2021/11/09 04:49:54;;;;;;;21.67;13.10;;;;;;;4.69;100.00;98907.16;4962340;28;20015;-79
2021/11/09 05:10:21;;;;;;;20.02;11.68;;;;;;;4.87;100.00;98923.31;4959130;28;20038;-79
2021/11/09 05:12:46;;;;;;;22.05;13.10;;;;;;;4.99;100.00;98937.69;4962580;28;20035;-79
2021/11/09 05:15:12;;;;;;;20.65;12.18;;;;;;;5.09;100.00;98937.09;4962431;28;20023;-78
2021/11/09 05:17:41;;;;;;;21.73;13.82;;;;;;;5.02;100.00;98942.63;4962101;29;20020;-81
2021/11/09 05:20:07;;;;;;;20.13;13.25;;;;;;;5.03;100.00;98949.72;4960631;29;20016;-81
2021/11/09 05:22:32;;;;;;;22.15;13.50;;;;;;;5.03;100.00;98948.88;4945256;29;20043;-80
2021/11/09 05:24:58;;;;;;;20.50;12.35;;;;;;;4.93;100.00;98957.59;4961699;29;20047;-79
2021/11/09 05:30:11;;;;;;;17.80;11.88;;;;;;;4.99;100.00;98936.84;4949021;23;20065;-80
2021/11/09 05:32:36;;;;;;;19.55;12.80;;;;;;;5.23;100.00;98966.44;4940858;29;20050;-80
2021/11/09 05:35:04;;;;;;;15.80;9.40;;;;;;;4.97;100.00;98950.66;4932731;29;20012;-81
2021/11/09 05:37:35;;;;;;;13.85;9.35;;;;;;;4.84;100.00;98934.63;4922606;29;20033;-79
2021/11/09 05:40:05;;;;;;;17.77;9.05;;;;;;;4.80;100.00;98928.00;4920409;29;20040;-79
2021/11/09 05:42:30;;;;;;;13.77;8.75;;;;;;;4.98;100.00;98963.13;4919418;29;20089;-82
2021/11/09 05:44:57;;;;;;;19.95;9.88;;;;;;;4.87;100.00;98942.28;4939014;28;20012;-77
2021/11/09 05:47:23;;;;;;;12.60;8.95;;;;;;;4.87;100.00;98939.56;4942545;28;20022;-78
2021/11/09 05:49:48;;;;;;;14.25;8.90;;;;;;;4.90;100.00;98946.41;4942123;28;20028;-77
2021/11/09 05:52:14;;;;;;;16.55;9.05;;;;;;;4.90;100.00;98977.03;4942395;28;20035;-77
2021/11/09 05:54:40;;;;;;;16.70;9.40;;;;;;;4.82;100.00;98958.41;4941210;28;20008;-78
2021/11/09 05:57:05;;;;;;;14.15;9.18;;;;;;;4.92;100.00;98960.56;4940589;29;20033;-78
2021/11/09 05:59:38;;;;;;;14.95;8.93;;;;;;;4.84;100.00;98950.88;4942305;28;20031;-76
2021/11/09 06:02:05;;;;;;;15.75;9.35;;;;;;;4.83;100.00;98958.16;4942203;28;20020;-76
2021/11/09 06:04:31;;;;;;;13.50;9.32;;;;;;;4.76;100.00;98948.53;4941742;28;20019;-76
2021/11/09 06:06:57;;;;;;;17.27;10.70;;;;;;;4.83;100.00;98973.59;4942337;28;20012;-77
2021/11/09 06:09:25;;;;;;;15.85;9.23;;;;;;;4.82;100.00;98983.63;4942183;28;20017;-78
2021/11/09 06:11:51;;;;;;;18.08;11.18;;;;;;;4.97;100.00;98999.44;4942008;28;20068;-77
2021/11/09 06:14:16;;;;;;;16.23;10.30;;;;;;;4.80;100.00;98987.63;4942100;28;20035;-75
2021/11/09 06:16:42;;;;;;;19.73;11.40;;;;;;;5.19;100.00;99035.78;4940963;28;20028;-79
2021/11/09 06:19:08;;;;;;;18.58;11.07;;;;;;;5.01;100.00;98995.19;4942036;28;20077;-81
2021/11/09 06:21:34;;;;;;;26.23;13.48;;;;;;;5.12;100.00;99026.94;4941572;28;20040;-76
2021/11/09 06:24:02;;;;;;;21.65;12.90;;;;;;;4.98;100.00;99006.50;4940007;28;20016;-77
2021/11/09 06:26:27;;;;;;;19.75;12.15;;;;;;;5.05;100.00;99012.66;4940899;28;20020;-77
2021/11/09 06:28:57;;;;;;;22.02;12.23;;;;;;;5.30;100.00;99053.94;4935100;29;20039;-78
2021/11/09 06:31:23;;;;;;;22.30;15.27;;;;;;;5.36;100.00;99047.59;4929455;29;20056;-76
2021/11/09 06:33:49;;;;;;;17.95;11.38;;;;;;;5.52;100.00;99067.75;4935815;29;20013;-80
2021/11/09 06:36:14;;;;;;;19.88;12.05;;;;;;;5.55;100.00;99039.31;4933305;29;20008;-77
2021/11/09 06:38:41;;;;;;;19.92;13.30;;;;;;;5.92;100.00;99076.88;4937719;29;20061;-76
2021/11/09 06:41:06;;;;;;;19.27;12.40;;;;;;;6.06;100.00;99057.63;4936158;29;20071;-81
2021/11/09 06:43:35;;;;;;;28.88;18.15;;;;;;;6.21;100.00;99072.34;4936777;29;20020;-76
2021/11/09 06:46:01;;;;;;;26.42;16.75;;;;;;;6.63;100.00;99072.94;4930124;29;20028;-80
2021/11/09 06:48:26;;;;;;;15.30;10.15;;;;;;;6.40;100.00;99114.59;4929561;29;20028;-79
2021/11/09 06:50:54;;;;;;;34.45;22.83;;;;;;;6.60;100.00;99118.81;4935280;29;20021;-81
2021/11/09 06:53:20;;;;;;;17.20;11.05;;;;;;;6.60;100.00;99116.91;4927464;29;20036;-75
2021/11/09 06:55:46;;;;;;;16.52;9.93;;;;;;;6.63;100.00;99123.75;4916284;29;20508;-81
2021/11/09 06:58:12;;;;;;;13.55;8.88;;;;;;;6.63;100.00;99126.47;4916706;29;20028;-79
2021/11/09 07:00:38;;;;;;;15.48;9.23;;;;;;;6.59;100.00;99133.44;4909415;29;20030;-79
2021/11/09 07:03:03;;;;;;;15.38;9.10;;;;;;;6.89;100.00;99134.06;4901126;29;20035;-78
2021/11/09 07:05:29;;;;;;;16.85;12.13;;;;;;;6.83;100.00;99132.31;4895992;29;20478;-78
2021/11/09 07:07:54;;;;;;;16.50;10.07;;;;;;;7.08;100.00;99127.34;4895662;29;20021;-77
2021/11/09 07:10:20;;;;;;;18.13;10.13;;;;;;;7.25;100.00;99136.38;4895708;29;20025;-76
2021/11/09 07:12:46;;;;;;;23.88;12.55;;;;;;;7.49;100.00;99129.72;4895571;29;20100;-77
2021/11/09 07:15:13;;;;;;;14.60;8.60;;;;;;;7.63;100.00;99137.56;4896157;29;20448;-76
2021/11/09 07:17:40;;;;;;;16.88;10.43;;;;;;;7.71;100.00;99137.97;4897555;29;20090;-78
2021/11/09 07:20:09;;;;;;;17.45;9.95;;;;;;;7.62;100.00;99144.09;4897576;29;20059;-76
2021/11/09 07:22:34;;;;;;;15.38;9.15;;;;;;;7.54;100.00;99151.63;4895680;29;20042;-73
2021/11/09 07:25:02;;;;;;;15.88;10.35;;;;;;;7.88;100.00;99154.34;4895402;29;20119;-73
2021/11/09 07:27:28;;;;;;;16.15;10.10;;;;;;;7.94;100.00;99156.88;4895732;29;20032;-73
2021/11/09 07:29:54;;;;;;;16.35;10.38;;;;;;;7.74;100.00;99158.44;4894662;29;20073;-81
2021/11/09 07:32:21;;;;;;;16.85;9.52;;;;;;;8.02;100.00;99161.06;4880940;29;20016;-81
2021/11/09 07:34:47;;;;;;;19.23;11.32;;;;;;;7.91;100.00;99162.00;4898398;29;20020;-81
2021/11/09 07:37:13;;;;;;;18.50;10.73;;;;;;;7.67;100.00;99174.13;4884556;29;20052;-80
2021/11/09 07:39:39;;;;;;;24.80;10.13;;;;;;;7.78;100.00;99175.94;4884873;29;20033;-80
2021/11/09 07:42:07;;;;;;;16.58;10.57;;;;;;;7.79;100.00;99177.59;4897261;29;20037;-81
2021/11/09 07:44:33;;;;;;;21.27;9.85;;;;;;;7.81;100.00;99175.47;4879195;29;20053;-80
2021/11/09 07:46:58;;;;;;;18.42;10.27;;;;;;;7.82;100.00;99179.84;4895719;29;20029;-81
2021/11/09 07:49:24;;;;;;;33.80;19.00;;;;;;;7.73;100.00;99179.44;4898434;29;20009;-81
2021/11/09 07:51:50;;;;;;;18.90;12.38;;;;;;;7.88;100.00;99189.75;4883178;29;20041;-81
2021/11/09 07:54:19;;;;;;;19.00;9.43;;;;;;;7.85;100.00;99192.97;4880853;29;20040;-80
2021/11/09 07:56:44;;;;;;;19.42;11.55;;;;;;;7.62;100.00;99191.19;4894816;29;20040;-80
2021/11/09 07:59:23;;;;;;;23.98;10.80;;;;;;;7.62;100.00;99193.09;4898546;29;20041;-80
2021/11/09 08:02:00;;;;;;;15.27;10.25;;;;;;;7.81;100.00;99180.91;4901069;29;20053;-80
2021/11/09 08:04:32;;;;;;;19.23;10.30;;;;;;;7.88;100.00;99187.03;4897183;29;20124;-81
2021/11/09 08:07:01;;;;;;;19.63;11.32;;;;;;;7.95;100.00;99188.53;4897282;29;20050;-80
2021/11/09 08:09:28;;;;;;;24.33;15.25;;;;;;;7.97;100.00;99189.09;4880596;29;20025;-81
2021/11/09 08:11:58;;;;;;;24.95;16.50;;;;;;;8.01;100.00;99194.88;4895661;29;20037;-80
2021/11/09 08:14:24;;;;;;;24.98;13.90;;;;;;;7.97;100.00;99180.06;4892485;29;20043;-81
2021/11/09 08:16:49;;;;;;;22.73;13.02;;;;;;;8.19;100.00;99188.31;4875517;29;20041;-80
2021/11/09 08:19:17;;;;;;;20.45;11.35;;;;;;;8.16;100.00;99181.47;4885402;29;20124;-80
2021/11/09 08:21:43;;;;;;;16.13;11.35;;;;;;;8.26;100.00;99184.34;4894123;29;20052;-80
2021/11/09 08:24:10;;;;;;;21.15;13.02;;;;;;;8.32;100.00;99188.84;4911145;29;20045;-81
2021/11/09 08:26:37;;;;;;;17.77;11.10;;;;;;;8.38;100.00;99198.75;4913326;29;20032;-80
2021/11/09 08:29:04;;;;;;;25.15;11.30;;;;;;;8.30;100.00;99196.41;4899163;29;20060;-80
2021/11/09 08:31:32;;;;;;;17.00;10.23;;;;;;;8.29;100.00;99200.25;4921787;29;20020;-80
2021/11/09 08:34:02;;;;;;;17.38;10.23;;;;;;;8.27;100.00;99205.06;4920672;29;20025;-79
2021/11/09 08:36:31;;;;;;;20.10;11.18;;;;;;;8.49;100.00;99205.16;4901009;29;20017;-80
2021/11/09 08:39:04;;;;;;;20.90;10.45;;;;;;;8.60;100.00;99206.97;4915682;29;20044;-79
2021/11/09 08:44:33;;;;;;;14.32;8.55;;;;;;;8.84;100.00;99196.63;4879099;29;20044;-78
2021/11/09 08:47:01;;;;;;;16.98;8.18;;;;;;;9.31;99.96;99213.28;4905080;29;20077;-78
2021/11/09 08:49:29;;;;;;;13.63;7.45;;;;;;;9.41;95.59;99206.06;4899823;29;20021;-78
2021/11/09 08:51:56;;;;;;;11.55;7.05;;;;;;;9.46;93.53;99219.75;4872729;29;20570;-78
2021/11/09 08:54:30;;;;;;;24.50;7.78;;;;;;;9.40;91.80;99217.22;4864833;29;20133;-78
2021/11/09 09:04:59;;;;;;;12.25;6.00;;;;;;;10.80;83.64;99221.44;4865213;29;20037;-77
2021/11/09 09:07:26;;;;;;;11.85;6.35;;;;;;;11.50;81.12;99235.41;4894396;29;20081;-77
2021/11/09 09:09:53;;;;;;;11.57;6.68;;;;;;;12.16;77.36;99236.38;4880662;29;20488;-77
2021/11/09 09:12:19;;;;;;;13.13;6.05;;;;;;;12.02;75.63;99243.50;4900153;29;20040;-78
2021/11/09 09:14:44;;;;;;;10.68;5.82;;;;;;;11.63;77.52;99245.84;4883355;29;20035;-78
2021/11/09 09:17:10;;;;;;;13.50;6.22;;;;;;;11.22;80.54;99246.81;4906278;29;20035;-78
2021/11/09 09:19:48;;;;;;;13.48;5.93;;;;;;;10.97;81.68;99249.41;4904059;29;20029;-76
2021/11/09 09:22:15;;;;;;;11.02;6.13;;;;;;;11.18;79.67;99256.66;4897534;29;20081;-76
2021/11/09 09:54:51;;;;;;;10.88;4.95;;;;;;;9.88;82.74;99293.69;4916180;29;20059;-76
2021/11/09 09:57:17;;;;;;;9.37;3.73;;;;;;;10.05;80.06;99285.41;4919158;28;20040;-78
2021/11/09 09:59:45;;;;;;;8.88;4.63;;;;;;;10.30;79.11;99280.19;4940752;28;20329;-79
2021/11/09 10:02:25;;;;;;;9.13;4.50;;;;;;;10.57;81.77;99278.19;4939992;28;20044;-77
2021/11/09 10:04:54;;;;;;;13.57;6.78;;;;;;;10.77;79.00;99287.63;4933442;29;20088;-79
2021/11/09 10:07:32;;;;;;;10.35;4.85;;;;;;;10.94;79.05;99283.63;4921163;29;20076;-79
2021/11/09 10:09:58;;;;;;;12.27;4.40;;;;;;;11.56;75.67;99286.38;4938209;29;20031;-75
2021/11/09 10:12:34;;;;;;;7.93;3.78;;;;;;;11.22;73.92;99285.16;4921978;29;20055;-79
2021/11/09 10:15:05;;;;;;;12.20;4.18;;;;;;;11.24;74.74;99293.94;4904376;29;20029;-75
2021/11/09 10:17:43;;;;;;;8.90;3.42;;;;;;;11.02;74.02;99301.50;4922032;29;20553;-82
2021/11/09 10:20:10;;;;;;;8.20;2.95;;;;;;;10.74;74.11;99295.28;4920330;29;20043;-77
2021/11/09 10:22:38;;;;;;;6.18;2.60;;;;;;;10.64;74.87;99294.41;4954704;29;20039;-81
2021/11/09 10:25:11;;;;;;;7.43;2.55;;;;;;;10.43;75.17;99298.06;4958675;29;20039;-80
2021/11/09 10:27:38;;;;;;;6.68;2.70;;;;;;;10.30;78.48;99291.13;4954923;29;20051;-79
2021/11/09 10:30:09;;;;;;;7.55;2.30;;;;;;;10.11;75.81;99290.66;4959380;29;20066;-81
2021/11/09 10:32:35;;;;;;;6.05;2.45;;;;;;;10.07;76.49;99272.28;4953436;28;20040;-75
2021/11/09 10:35:10;;;;;;;5.60;2.00;;;;;;;9.98;74.34;99263.72;4942199;29;20039;-76
2021/11/09 10:37:38;;;;;;;5.72;1.95;;;;;;;10.04;74.70;99278.25;4935392;29;20024;-76
2021/11/09 10:40:08;;;;;;;4.75;2.22;;;;;;;10.12;74.63;99283.25;4917387;29;20576;-76
2021/11/09 10:42:39;;;;;;;4.70;2.13;;;;;;;10.25;74.27;99284.75;4932962;29;20084;-75
2021/11/09 10:45:11;;;;;;;6.32;2.10;;;;;;;10.21;74.90;99279.00;4934776;29;20552;-76
2021/11/09 10:47:41;;;;;;;7.40;2.53;;;;;;;10.20;72.49;99272.72;4891956;29;20197;-76
2021/11/09 10:50:10;;;;;;;5.70;2.35;;;;;;;10.16;72.61;99270.75;4932733;29;20027;-75
2021/11/09 10:52:39;;;;;;;4.68;1.90;;;;;;;10.18;71.83;99274.03;4904686;29;20036;-76
2021/11/09 10:55:18;;;;;;;4.05;2.28;;;;;;;10.13;74.01;99268.50;4896576;29;20967;-77
2021/11/09 10:58:42;;;;;;;7.95;2.65;;;;;;;10.29;73.01;99264.84;4918303;29;20039;-76
2021/11/09 11:06:28;;;;;;;6.95;2.53;;;;;;;10.32;72.35;99286.22;4923073;29;20078;-75
2021/11/09 11:08:55;;;;;;;7.18;2.60;;;;;;;10.49;74.08;99281.44;4922512;29;20043;-76
2021/11/09 11:11:23;;;;;;;6.90;2.53;;;;;;;10.62;72.41;99277.41;4903744;29;20360;-74
2021/11/09 11:14:16;;;;;;;6.70;2.72;;;;;;;10.57;71.53;99277.38;4922997;29;20540;-75
2021/11/09 11:17:04;;;;;;;6.68;3.13;;;;;;;10.45;75.43;99302.19;4904787;29;20035;-76
2021/11/09 11:19:37;;;;;;;6.43;2.80;;;;;;;10.56;72.46;99314.00;4905492;29;20130;-75
2021/11/09 11:22:09;;;;;;;8.52;4.15;;;;;;;11.04;70.82;99300.13;4921148;29;20088;-76
2021/11/09 11:24:36;;;;;;;6.57;3.20;;;;;;;11.04;70.61;99304.78;4904523;29;20012;-77
2021/11/09 11:27:04;;;;;;;4.57;2.30;;;;;;;10.81;71.34;99318.88;4922774;29;20043;-76
2021/11/09 11:29:32;;;;;;;7.65;3.25;;;;;;;11.03;68.33;99319.53;4921872;29;20493;-77
2021/11/09 11:31:58;;;;;;;6.10;2.78;;;;;;;10.57;69.88;99323.88;4920974;29;20043;-78
2021/11/09 11:34:24;;;;;;;5.88;2.63;;;;;;;10.28;70.41;99334.28;4902378;29;20552;-77
2021/11/09 11:36:51;;;;;;;5.10;2.55;;;;;;;10.23;71.59;99328.78;4921634;29;20027;-76
2021/11/09 11:39:20;;;;;;;10.52;2.20;;;;;;;10.08;71.21;99318.50;4905676;29;20024;-76
2021/11/09 11:41:52;;;;;;;9.45;2.85;;;;;;;10.03;73.50;99315.72;4906000;29;20114;-76
2021/11/09 11:44:38;;;;;;;10.63;3.80;;;;;;;9.99;73.84;99320.03;4920737;29;20072;-77
2021/11/09 11:47:21;;;;;;;6.95;2.58;;;;;;;9.95;74.00;99296.22;4920582;29;20099;-76
2021/11/09 11:49:53;;;;;;;5.47;2.25;;;;;;;9.93;72.38;99304.66;4925462;29;20027;-78
2021/11/09 11:52:27;;;;;;;8.93;3.40;;;;;;;9.91;74.88;99314.22;4925906;29;20044;-78
2021/11/09 11:55:04;;;;;;;7.55;2.50;;;;;;;9.98;72.55;99317.56;4913805;29;20440;-79
2021/11/09 11:57:48;;;;;;;5.35;2.70;;;;;;;10.06;72.40;99319.81;4929699;29;20040;-78
2021/11/09 12:00:30;;;;;;;7.65;3.03;;;;;;;10.28;71.17;99304.22;4911091;29;20055;-78
2021/11/09 12:02:57;;;;;;;6.55;2.83;;;;;;;10.04;72.19;99292.75;4906540;29;20027;-78
2021/11/09 12:05:41;;;;;;;4.93;2.45;;;;;;;10.00;72.12;99304.47;4921833;29;20502;-78
2021/11/09 12:08:14;;;;;;;6.75;2.85;;;;;;;10.17;72.40;99286.06;4908101;29;20027;-78
2021/11/09 12:10:47;;;;;;;5.72;2.40;;;;;;;10.02;72.40;99283.19;4906627;29;20555;-76
2021/11/09 12:13:15;;;;;;;6.28;2.40;;;;;;;9.91;71.19;99297.81;4921507;29;20028;-78
2021/11/09 12:16:01;;;;;;;4.63;1.98;;;;;;;10.16;72.48;99290.72;4921705;29;20083;-77
2021/11/09 12:18:42;;;;;;;7.03;2.50;;;;;;;10.32;70.93;99299.06;4912591;29;20044;-78
2021/11/09 12:21:30;;;;;;;5.82;2.67;;;;;;;10.53;70.82;99298.13;4928710;29;20036;-77
2021/11/09 12:24:18;;;;;;;7.32;2.97;;;;;;;10.54;70.32;99292.41;4929615;29;20019;-77
2021/11/09 12:26:48;;;;;;;8.77;3.30;;;;;;;10.84;72.29;99299.19;4928181;29;20036;-80
2021/11/09 12:29:35;;;;;;;8.63;3.50;;;;;;;10.88;70.02;99292.09;4933435;29;20102;-80
2021/11/09 12:32:23;;;;;;;7.13;2.45;;;;;;;10.87;69.44;99277.56;4920895;29;20046;-79
2021/11/09 12:35:00;;;;;;;6.18;2.40;;;;;;;10.62;69.97;99272.75;4929634;29;20036;-78
2021/11/09 12:37:26;;;;;;;5.57;2.45;;;;;;;10.61;72.03;99265.66;4903406;29;20075;-77
2021/11/09 12:40:30;;;;;;;6.20;2.17;;;;;;;10.90;71.38;99284.44;4922963;29;20024;-77
2021/11/09 12:43:02;;;;;;;6.85;3.17;;;;;;;11.02;69.90;99302.31;4906357;29;20038;-77
2021/11/09 12:45:31;;;;;;;8.60;3.50;;;;;;;11.17;69.29;99296.09;4911388;29;20032;-76
2021/11/09 12:48:06;;;;;;;15.93;2.53;;;;;;;10.86;69.50;99275.09;4908681;29;20063;-78
2021/11/09 12:50:33;;;;;;;10.30;2.75;;;;;;;10.64;71.41;99287.00;4938480;29;20610;-77
2021/11/09 12:53:11;;;;;;;6.93;3.08;;;;;;;10.62;70.58;99296.53;4930594;29;20055;-78
2021/11/09 12:55:41;;;;;;;5.65;2.35;;;;;;;10.71;74.33;99300.47;4934608;29;20120;-78
2021/11/09 12:58:22;;;;;;;7.22;2.75;;;;;;;10.63;71.03;99290.81;4938480;29;20024;-76
2021/11/09 13:01:12;;;;;;;7.07;2.33;;;;;;;10.57;70.44;99283.66;4935455;29;20024;-79
2021/11/09 13:03:45;;;;;;;10.75;2.63;;;;;;;10.57;71.70;99289.16;4936923;29;20030;-77
2021/11/09 13:06:35;;;;;;;8.95;2.67;;;;;;;10.62;70.98;99302.84;4922680;29;20122;-79
2021/11/09 13:09:07;;;;;;;6.70;2.47;;;;;;;10.70;71.38;99309.75;4941760;29;20091;-77
2021/11/09 13:11:39;;;;;;;11.77;3.17;;;;;;;10.47;72.44;99312.84;4929190;29;20036;-77
2021/11/09 13:14:07;;;;;;;9.07;3.00;;;;;;;10.42;72.51;99291.75;4928835;29;20023;-75
2021/11/09 13:16:33;;;;;;;7.40;2.42;;;;;;;10.61;71.23;99289.44;4928192;29;20044;-77
2021/11/09 13:19:05;;;;;;;7.15;2.78;;;;;;;10.66;71.52;99298.50;4915869;29;20032;-77
2021/11/09 13:21:31;;;;;;;8.27;2.67;;;;;;;10.67;73.22;99291.13;4916992;29;20042;-77
2021/11/09 13:23:57;;;;;;;6.85;2.70;;;;;;;10.49;71.10;99295.13;4917960;29;20059;-77
2021/11/09 13:26:22;;;;;;;5.43;3.03;;;;;;;10.35;72.13;99302.09;4917498;29;20102;-76
2021/11/09 13:28:48;;;;;;;11.82;2.80;;;;;;;10.50;71.79;99288.53;4931905;29;20054;-76
2021/11/09 13:31:15;;;;;;;6.88;2.80;;;;;;;10.46;73.70;99298.34;4937046;29;20035;-76
2021/11/09 13:33:42;;;;;;;6.45;2.25;;;;;;;10.43;71.08;99309.00;4939495;29;20392;-78
2021/11/09 13:36:09;;;;;;;6.32;2.58;;;;;;;10.35;71.88;99309.47;4938871;29;20074;-78
2021/11/09 13:38:40;;;;;;;6.38;2.33;;;;;;;10.44;71.25;99302.44;4919713;29;20560;-78
2021/11/09 13:41:08;;;;;;;8.77;2.40;;;;;;;10.45;71.68;99295.88;4938462;29;20046;-77
2021/11/09 13:43:41;;;;;;;6.05;2.13;;;;;;;10.47;72.02;99297.25;4937049;29;20039;-78
2021/11/09 13:46:11;;;;;;;4.75;2.55;;;;;;;10.45;71.72;99304.09;4918850;29;20046;-77
2021/11/09 13:48:39;;;;;;;9.50;2.55;;;;;;;10.46;70.81;99290.13;4918674;29;20055;-77
2021/11/09 13:51:10;;;;;;;8.02;2.35;;;;;;;10.50;72.69;99304.94;4919471;29;20484;-77
2021/11/09 13:53:42;;;;;;;6.50;2.80;;;;;;;10.46;72.36;99303.00;4920283;29;20031;-77